createdAt,value
2023-05-06T00:00:14.614Z,10.98
2023-05-06T00:03:20.170Z,11.43
2023-05-06T00:06:22.465Z,10.67
2023-05-06T00:09:24.929Z,11.02
2023-05-06T00:12:27.603Z,11.05
2023-05-06T00:15:31.559Z,11.45
2023-05-06T00:18:36.212Z,11.77
2023-05-06T00:21:41.376Z,11.70
2023-05-06T00:24:43.491Z,10.98
2023-05-06T00:27:45.701Z,12.17
2023-05-06T00:30:49.601Z,10.90
2023-05-06T00:33:54.357Z,10.63
2023-05-06T00:36:58.368Z,12.30
2023-05-06T00:40:01.101Z,11.10
2023-05-06T00:43:07.246Z,10.15
2023-05-06T00:46:13.941Z,12.77
2023-05-06T00:49:16.167Z,14.10
2023-05-06T00:52:20.204Z,12.73
2023-05-06T00:55:22.358Z,11.50
2023-05-06T00:58:25.030Z,10.73
2023-05-06T01:01:30.777Z,12.63
2023-05-06T01:04:36.419Z,11.70
2023-05-06T01:08:11.524Z,13.05
2023-05-06T01:11:17.743Z,12.43
2023-05-06T01:14:33.765Z,12.23
2023-05-06T01:17:42.341Z,11.38
2023-05-06T01:20:50.160Z,14.98
2023-05-06T01:23:52.547Z,12.00
2023-05-06T01:26:54.636Z,12.80
2023-05-06T01:29:58.458Z,11.77
2023-05-06T01:33:29.575Z,17.45
2023-05-06T01:37:17.253Z,14.33
2023-05-06T01:40:23.774Z,12.90
2023-05-06T01:43:29.586Z,11.75
2023-05-06T01:46:35.082Z,12.90
2023-05-06T01:49:37.474Z,13.02
2023-05-06T01:52:39.737Z,14.18
2023-05-06T01:55:41.926Z,11.95
2023-05-06T01:58:44.008Z,11.50
2023-05-06T02:01:46.120Z,11.07
2023-05-06T02:04:48.335Z,11.45
2023-05-06T02:07:50.490Z,10.88
2023-05-06T02:10:52.595Z,12.80
2023-05-06T02:13:55.915Z,11.40
2023-05-06T02:17:06.157Z,11.95
2023-05-06T02:20:11.184Z,12.32
2023-05-06T02:23:14.718Z,11.57
2023-05-06T02:26:16.762Z,12.10
2023-05-06T02:29:18.846Z,12.23
2023-05-06T02:32:21.070Z,11.23
2023-05-06T02:35:23.509Z,12.95
2023-05-06T02:38:25.833Z,13.02
2023-05-06T02:41:28.358Z,14.70
2023-05-06T02:44:30.674Z,13.20
2023-05-06T02:47:34.136Z,12.48
2023-05-06T02:50:36.267Z,13.23
2023-05-06T02:53:40.993Z,12.90
2023-05-06T02:56:43.325Z,12.47
2023-05-06T02:59:45.861Z,14.23
2023-05-06T03:02:51.480Z,12.60
2023-05-06T03:05:53.064Z,16.02
2023-05-06T03:08:55.572Z,12.52
2023-05-06T03:11:57.594Z,12.75
2023-05-06T03:14:59.963Z,13.65
2023-05-06T03:18:02.415Z,13.17
2023-05-06T03:21:05.814Z,11.88
2023-05-06T03:24:17.025Z,11.43
2023-05-06T03:27:19.249Z,11.23
2023-05-06T03:30:25.431Z,11.88
2023-05-06T03:33:30.765Z,12.95
2023-05-06T03:36:34.377Z,12.55
2023-05-06T03:39:36.936Z,12.23
2023-05-06T03:42:40.296Z,15.02
2023-05-06T03:45:43.692Z,11.85
2023-05-06T03:48:46.074Z,13.30
2023-05-06T03:51:53.982Z,11.43
2023-05-06T03:54:58.813Z,12.10
2023-05-06T03:58:02.530Z,14.57
2023-05-06T04:01:04.506Z,12.00
2023-05-06T04:04:09.663Z,13.45
2023-05-06T04:07:12.534Z,13.77
2023-05-06T04:10:15.205Z,14.20
2023-05-06T04:13:23.041Z,14.17
2023-05-06T04:16:25.184Z,13.00
2023-05-06T04:19:27.670Z,13.18
2023-05-06T04:22:29.351Z,13.00
2023-05-06T04:25:32.846Z,13.83
2023-05-06T04:28:35.308Z,15.38
2023-05-06T04:31:40.306Z,13.43
2023-05-06T04:34:47.407Z,14.03
2023-05-06T04:37:51.288Z,13.45
2023-05-06T04:41:01.615Z,14.70
2023-05-06T04:44:04.822Z,13.45
2023-05-06T04:47:08.188Z,13.73
2023-05-06T04:50:10.885Z,17.55
2023-05-06T04:53:13.708Z,14.27
2023-05-06T04:56:16.566Z,13.77
2023-05-06T04:59:25.405Z,15.63
2023-05-06T05:02:27.570Z,15.02
2023-05-06T05:05:34.339Z,15.77
2023-05-06T05:08:46.158Z,15.68
2023-05-06T05:11:49.523Z,15.57
2023-05-06T05:14:51.313Z,15.57
2023-05-06T05:17:54.249Z,16.90
2023-05-06T05:20:58.694Z,17.98
2023-05-06T05:24:02.547Z,20.83
2023-05-06T05:27:08.978Z,20.27
2023-05-06T05:30:11.473Z,20.42
2023-05-06T05:33:14.328Z,22.98
2023-05-06T05:36:17.845Z,21.48
2023-05-06T05:39:21.864Z,21.13
2023-05-06T05:42:24.080Z,20.25
2023-05-06T05:45:27.116Z,20.25
2023-05-06T05:48:32.641Z,19.73
2023-05-06T05:51:35.912Z,17.88
2023-05-06T05:54:40.020Z,20.48
2023-05-06T05:57:42.726Z,21.98
2023-05-06T06:00:45.253Z,19.63
2023-05-06T06:03:54.504Z,22.90
2023-05-06T06:06:58.149Z,20.40
2023-05-06T06:10:00.584Z,23.80
2023-05-06T06:13:03.055Z,23.47
2023-05-06T06:16:07.798Z,23.00
2023-05-06T06:19:10.051Z,22.50
2023-05-06T06:22:11.916Z,21.60
2023-05-06T06:25:14.584Z,22.85
2023-05-06T06:28:16.977Z,24.17
2023-05-06T06:31:20.458Z,20.65
2023-05-06T06:34:24.533Z,21.93
2023-05-06T06:37:27.692Z,22.02
2023-05-06T06:40:36.142Z,22.23
2023-05-06T06:43:43.693Z,19.88
2023-05-06T06:46:56.894Z,21.40
2023-05-06T06:50:00.300Z,21.40
2023-05-06T06:53:06.633Z,22.73
2023-05-06T06:56:11.951Z,21.83
2023-05-06T06:59:17.000Z,21.40
2023-05-06T07:02:23.522Z,19.50
2023-05-06T07:05:26.909Z,19.95
2023-05-06T07:08:28.581Z,19.83
2023-05-06T07:11:30.211Z,20.73
2023-05-06T07:14:32.189Z,19.55
2023-05-06T07:17:34.441Z,21.35
2023-05-06T07:20:39.051Z,19.52
2023-05-06T07:23:41.400Z,19.40
2023-05-06T07:26:43.900Z,20.10
2023-05-06T07:29:46.645Z,19.10
2023-05-06T07:32:50.610Z,19.40
2023-05-06T07:35:56.417Z,19.30
2023-05-06T07:39:01.557Z,16.50
2023-05-06T07:42:06.707Z,16.20
2023-05-06T07:45:12.252Z,17.73
2023-05-06T07:48:21.347Z,15.40
2023-05-06T07:51:30.367Z,14.73
2023-05-06T07:54:33.963Z,15.43
2023-05-06T07:57:38.531Z,15.52
2023-05-06T08:00:42.208Z,13.30
2023-05-06T08:03:44.464Z,13.90
2023-05-06T08:06:48.173Z,13.75
2023-05-06T08:09:50.753Z,14.82
2023-05-06T08:12:52.911Z,12.07
2023-05-06T08:15:54.715Z,13.17
2023-05-06T08:18:56.774Z,12.55
2023-05-06T08:21:58.705Z,10.90
2023-05-06T08:25:01.321Z,10.07
2023-05-06T08:28:04.830Z,10.83
2023-05-06T08:31:06.982Z,11.05
2023-05-06T08:34:09.289Z,9.88
2023-05-06T08:37:11.174Z,11.38
2023-05-06T08:40:22.429Z,13.48
2023-05-06T08:43:28.489Z,10.02
2023-05-06T08:46:31.125Z,9.43
2023-05-06T08:49:33.441Z,10.00
2023-05-06T08:52:37.137Z,9.27
2023-05-06T08:55:40.900Z,12.17
2023-05-06T08:58:49.287Z,10.43
2023-05-06T09:01:52.326Z,10.50
2023-05-06T09:04:55.043Z,12.32
2023-05-06T09:07:57.280Z,9.50
2023-05-06T09:10:58.968Z,11.20
2023-05-06T09:14:10.260Z,12.27
2023-05-06T09:17:24.526Z,8.52
2023-05-06T09:20:29.547Z,9.52
2023-05-06T09:23:32.000Z,9.43
2023-05-06T09:26:36.101Z,10.10
2023-05-06T09:29:39.361Z,10.93
2023-05-06T09:32:44.035Z,9.45
2023-05-06T09:35:49.963Z,8.95
2023-05-06T09:38:54.868Z,11.13
2023-05-06T09:41:57.548Z,8.38
2023-05-06T09:45:02.200Z,7.93
2023-05-06T09:48:09.128Z,12.57
2023-05-06T09:51:11.025Z,8.63
2023-05-06T09:54:15.893Z,9.30
2023-05-06T09:57:18.500Z,8.63
2023-05-06T10:00:26.835Z,8.80
2023-05-06T10:03:29.614Z,8.70
2023-05-06T10:06:36.118Z,7.57
2023-05-06T10:09:41.882Z,11.90
2023-05-06T10:12:44.794Z,8.88
2023-05-06T10:15:49.208Z,8.52
2023-05-06T10:18:55.391Z,7.85
2023-05-06T10:22:21.052Z,8.60
2023-05-06T10:25:49.273Z,10.47
2023-05-06T10:28:53.483Z,8.73
2023-05-06T10:31:57.744Z,7.97
2023-05-06T10:35:11.497Z,8.27
2023-05-06T10:38:23.822Z,7.65
2023-05-06T10:41:28.260Z,6.70
2023-05-06T10:45:03.945Z,7.03
2023-05-06T10:48:09.724Z,7.18
2023-05-06T10:51:17.591Z,7.85
2023-05-06T10:54:20.885Z,7.05
2023-05-06T10:57:29.114Z,6.90
2023-05-06T11:00:35.591Z,6.57
2023-05-06T11:03:37.838Z,7.10
2023-05-06T11:06:44.126Z,7.32
2023-05-06T11:10:01.681Z,8.05
2023-05-06T11:13:23.604Z,7.83
2023-05-06T11:16:51.742Z,7.13
2023-05-06T11:20:20.319Z,7.55
2023-05-06T11:23:22.462Z,6.93
2023-05-06T11:26:25.064Z,6.85
2023-05-06T11:29:27.949Z,13.07
2023-05-06T11:32:30.675Z,7.55
2023-05-06T11:35:38.589Z,5.78
2023-05-06T11:38:45.578Z,5.88
2023-05-06T11:41:48.986Z,6.65
2023-05-06T11:44:54.356Z,5.60
2023-05-06T11:47:57.275Z,5.25
2023-05-06T11:51:00.083Z,6.03
2023-05-06T11:54:09.225Z,5.97
2023-05-06T11:57:11.718Z,7.60
2023-05-06T12:00:14.769Z,6.40
2023-05-06T12:03:16.492Z,6.07
2023-05-06T12:06:22.099Z,4.70
2023-05-06T12:09:26.436Z,6.47
2023-05-06T12:12:28.249Z,5.05
2023-05-06T12:15:30.730Z,4.70
2023-05-06T12:18:32.626Z,6.65
2023-05-06T12:21:38.993Z,4.80
2023-05-06T12:24:41.141Z,7.03
2023-05-06T12:27:42.750Z,7.68
2023-05-06T12:30:45.942Z,6.53
2023-05-06T12:33:50.605Z,8.85
2023-05-06T12:36:52.940Z,5.57
2023-05-06T12:39:57.833Z,5.45
2023-05-06T12:43:04.028Z,6.25
2023-05-06T12:46:08.124Z,6.07
2023-05-06T12:49:09.749Z,5.50
2023-05-06T12:52:11.748Z,5.35
2023-05-06T12:55:14.190Z,5.35
2023-05-06T12:58:18.492Z,5.50
2023-05-06T13:01:22.090Z,6.73
2023-05-06T13:04:24.979Z,6.38
2023-05-06T13:07:27.072Z,5.47
2023-05-06T13:10:29.259Z,5.53
2023-05-06T13:13:31.954Z,6.20
2023-05-06T13:16:35.404Z,5.53
2023-05-06T13:19:37.819Z,4.80
2023-05-06T13:22:53.178Z,5.90
2023-05-06T13:26:04.147Z,6.05
2023-05-06T13:29:08.960Z,5.45
2023-05-06T13:32:11.053Z,6.80
2023-05-06T13:35:13.211Z,5.72
2023-05-06T13:38:15.427Z,7.85
2023-05-06T13:41:17.668Z,5.97
2023-05-06T13:44:21.463Z,6.40
2023-05-06T13:47:23.885Z,5.80
2023-05-06T13:50:26.016Z,6.10
2023-05-06T13:53:28.179Z,7.18
2023-05-06T13:56:29.845Z,5.88
2023-05-06T13:59:31.589Z,5.30
2023-05-06T14:02:36.189Z,5.27
2023-05-06T14:05:38.290Z,7.60
2023-05-06T14:08:41.522Z,5.30
2023-05-06T14:11:43.654Z,6.50
2023-05-06T14:14:45.760Z,5.90
2023-05-06T14:17:48.175Z,6.13
2023-05-06T14:20:49.787Z,6.90
2023-05-06T14:23:52.342Z,6.00
2023-05-06T14:26:55.061Z,5.70
2023-05-06T14:29:57.547Z,5.93
2023-05-06T14:33:00.696Z,6.43
2023-05-06T14:36:03.534Z,4.97
2023-05-06T14:39:05.688Z,4.60
2023-05-06T14:42:08.045Z,5.57
2023-05-06T14:45:10.894Z,4.60
2023-05-06T14:48:12.816Z,5.03
2023-05-06T14:51:15.365Z,5.70
2023-05-06T14:54:17.557Z,4.50
2023-05-06T14:57:19.819Z,6.63
2023-05-06T15:00:21.877Z,4.75
2023-05-06T15:03:24.004Z,4.67
2023-05-06T15:06:26.356Z,6.27
2023-05-06T15:09:28.699Z,5.35
2023-05-06T15:12:33.505Z,6.75
2023-05-06T15:15:38.636Z,4.72
2023-05-06T15:18:41.965Z,4.93
2023-05-06T15:21:44.156Z,5.07
2023-05-06T15:24:46.340Z,4.90
2023-05-06T15:27:49.204Z,4.95
2023-05-06T15:30:51.297Z,5.97
2023-05-06T15:33:52.938Z,6.20
2023-05-06T15:36:58.839Z,6.87
2023-05-06T15:40:03.182Z,4.70
2023-05-06T15:43:05.649Z,4.50
2023-05-06T15:46:08.145Z,6.53
2023-05-06T15:52:17.340Z,5.67
2023-05-06T15:55:19.648Z,9.23
2023-05-06T15:58:23.306Z,5.38
2023-05-06T16:01:45.082Z,5.72
2023-05-06T16:04:48.677Z,5.70
2023-05-06T16:07:52.173Z,5.50
2023-05-06T16:10:54.349Z,4.45
2023-05-06T16:13:56.608Z,4.78
2023-05-06T16:16:59.208Z,5.25
2023-05-06T16:20:01.384Z,5.53
2023-05-06T16:23:03.332Z,6.00
2023-05-06T16:26:06.754Z,5.05
2023-05-06T16:29:08.912Z,5.32
2023-05-06T16:32:12.626Z,4.38
2023-05-06T16:35:19.500Z,5.30
2023-05-06T16:38:25.191Z,5.53
2023-05-06T16:41:27.004Z,5.38
2023-05-06T16:47:49.435Z,21.90
2023-05-06T16:50:53.241Z,15.03
2023-05-06T16:53:59.997Z,10.97
2023-05-06T16:57:04.090Z,8.32
2023-05-06T17:00:17.367Z,11.93
2023-05-06T17:03:19.993Z,13.00
2023-05-06T17:06:30.850Z,9.70
2023-05-06T17:09:33.683Z,6.67
2023-05-06T17:12:44.296Z,5.93
2023-05-06T17:15:48.745Z,5.40
2023-05-06T17:18:51.317Z,5.68
2023-05-06T17:21:58.199Z,6.27
2023-05-06T17:24:59.845Z,7.20
2023-05-06T17:28:03.309Z,5.60
2023-05-06T17:31:13.442Z,6.50
2023-05-06T17:34:15.674Z,12.70
2023-05-06T17:37:17.861Z,15.23
2023-05-06T17:40:19.460Z,11.75
2023-05-06T17:43:23.353Z,12.18
2023-05-06T17:46:26.928Z,9.40
2023-05-06T17:49:29.644Z,9.50
2023-05-06T17:52:33.588Z,6.37
2023-05-06T17:55:35.816Z,9.55
2023-05-06T17:58:37.458Z,7.82
2023-05-06T18:01:40.147Z,6.50
2023-05-06T18:04:43.565Z,7.85
2023-05-06T18:07:45.920Z,7.07
2023-05-06T18:10:51.977Z,9.13
2023-05-06T18:13:54.025Z,8.40
2023-05-06T18:16:56.216Z,8.38
2023-05-06T18:19:58.408Z,7.63
2023-05-06T18:23:03.639Z,8.10
2023-05-06T18:26:06.290Z,5.70
2023-05-06T18:29:07.973Z,6.40
2023-05-06T18:32:10.404Z,7.57
2023-05-06T18:35:14.812Z,8.32
2023-05-06T18:38:17.064Z,10.63
2023-05-06T18:41:28.170Z,7.10
2023-05-06T18:44:30.762Z,8.23
2023-05-06T18:47:35.998Z,9.48
2023-05-06T18:50:38.491Z,7.60
2023-05-06T18:53:43.381Z,7.43
2023-05-06T18:56:45.523Z,7.28
2023-05-06T18:59:48.667Z,9.02
2023-05-06T19:02:50.563Z,8.43
2023-05-06T19:05:52.583Z,8.30
2023-05-06T19:08:54.683Z,8.80
2023-05-06T19:11:56.409Z,10.32
2023-05-06T19:14:58.409Z,7.90
2023-05-06T19:18:00.508Z,7.55
2023-05-06T19:21:02.630Z,8.65
2023-05-06T19:24:06.358Z,9.00
2023-05-06T19:27:08.508Z,10.52
2023-05-06T19:30:11.730Z,8.23
2023-05-06T19:33:14.468Z,8.98
2023-05-06T19:36:16.775Z,10.13
2023-05-06T19:39:25.777Z,9.20
2023-05-06T19:42:28.251Z,10.95
2023-05-06T19:45:32.459Z,7.82
2023-05-06T19:48:35.572Z,9.95
2023-05-06T19:51:39.275Z,9.68
2023-05-06T19:54:42.208Z,8.43
2023-05-06T19:57:46.719Z,8.95
2023-05-06T20:00:49.613Z,9.13
2023-05-06T20:03:51.541Z,9.35
2023-05-06T20:06:53.648Z,8.60
2023-05-06T20:09:56.861Z,12.00
2023-05-06T20:13:02.402Z,12.02
2023-05-06T20:16:04.797Z,11.30
2023-05-06T20:19:07.902Z,9.57
2023-05-06T20:22:09.593Z,11.48
2023-05-06T20:25:18.909Z,11.27
2023-05-06T20:28:20.626Z,12.68
2023-05-06T20:31:22.804Z,14.32
2023-05-06T20:34:24.419Z,11.15
2023-05-06T20:37:26.590Z,11.60
2023-05-06T20:40:29.297Z,10.32
2023-05-06T20:43:31.654Z,12.35
2023-05-06T20:46:36.787Z,11.18
2023-05-06T20:49:39.785Z,10.45
2023-05-06T20:52:42.319Z,12.97
2023-05-06T20:55:43.969Z,13.02
2023-05-06T20:58:46.120Z,12.80
2023-05-06T21:01:47.769Z,14.15
2023-05-06T21:04:49.439Z,13.03
2023-05-06T21:07:51.708Z,12.32
2023-05-06T21:10:53.746Z,13.77
2023-05-06T21:13:55.550Z,15.15
2023-05-06T21:16:58.107Z,11.82
2023-05-06T21:20:00.063Z,13.93
2023-05-06T21:23:04.178Z,13.10
2023-05-06T21:26:05.784Z,10.90
2023-05-06T21:29:07.806Z,11.50
2023-05-06T21:32:09.508Z,12.97
2023-05-06T21:35:11.490Z,12.98
2023-05-06T21:38:13.768Z,15.35
2023-05-06T21:41:16.608Z,13.65
2023-05-06T21:44:18.371Z,10.63
2023-05-06T21:47:20.517Z,14.15
2023-05-06T21:50:22.818Z,11.05
2023-05-06T21:53:25.223Z,11.73
2023-05-06T21:56:26.941Z,12.13
2023-05-06T21:59:28.618Z,12.07
2023-05-06T22:02:30.725Z,12.40
2023-05-06T22:05:32.864Z,13.60
2023-05-06T22:08:34.935Z,11.00
2023-05-06T22:11:38.776Z,11.60
2023-05-06T22:14:41.907Z,12.63
2023-05-06T22:17:44.115Z,11.30
2023-05-06T22:20:46.701Z,11.43
2023-05-06T22:23:49.748Z,12.90
2023-05-06T22:26:51.949Z,11.27
2023-05-06T22:29:53.620Z,13.60
2023-05-06T22:32:55.308Z,10.97
2023-05-06T22:35:57.547Z,10.60
2023-05-06T22:39:01.218Z,11.82
2023-05-06T22:42:04.530Z,12.23
2023-05-06T22:45:07.409Z,12.30
2023-05-06T22:48:10.912Z,11.93
2023-05-06T22:51:16.001Z,11.50
2023-05-06T22:54:18.533Z,12.10
2023-05-06T22:57:22.827Z,11.43
2023-05-06T23:00:25.027Z,10.55
2023-05-06T23:03:28.876Z,10.75
2023-05-06T23:06:31.148Z,15.57
2023-05-06T23:09:34.268Z,12.87
2023-05-06T23:12:36.025Z,11.27
2023-05-06T23:15:38.275Z,12.80
2023-05-06T23:18:40.747Z,11.32
2023-05-06T23:21:43.936Z,10.60
2023-05-06T23:24:46.409Z,13.55
2023-05-06T23:27:48.683Z,11.82
2023-05-06T23:30:50.895Z,11.35
2023-05-06T23:33:52.935Z,13.63
2023-05-06T23:36:56.634Z,13.60
2023-05-06T23:39:58.780Z,12.95
2023-05-06T23:43:00.849Z,14.45
2023-05-06T23:46:02.878Z,16.40
2023-05-06T23:49:05.894Z,13.13
2023-05-06T23:52:07.574Z,14.20
2023-05-06T23:55:10.119Z,13.40
2023-05-06T23:58:12.636Z,12.83
